Time;durP1;ratioP1;P1;durP2;ratioP2;P2;SDS_P1;SDS_P2;PMS_P1;PMS_P2;Temp;Humidity;BMP_temperature;BMP_pressure;BME280_temperature;BME280_humidity;BME280_pressure;Samples;Min_cycle;Max_cycle;Signal;HPM_P1;HPM_P2
2022/05/23 00:02:08;;;;;;;1.93;1.73;;;;;;;19.22;64.35;97880.75;5044380;27;102858;-68
2022/05/23 00:04:37;;;;;;;3.30;2.00;;;;;;;19.00;66.14;97887.00;5044670;27;104259;-69
2022/05/23 00:07:13;;;;;;;2.60;2.40;;;;;;;17.91;70.53;97881.16;5041053;27;103034;-69
2022/05/23 00:09:41;;;;;;;2.97;2.53;;;;;;;17.29;73.64;97875.75;5038602;27;103212;-69
2022/05/23 00:12:10;;;;;;;2.88;2.38;;;;;;;16.96;75.03;97878.69;5043293;27;103159;-69
2022/05/23 00:14:41;;;;;;;4.18;2.13;;;;;;;17.61;72.89;97868.66;5023095;27;104070;-69
2022/05/23 00:17:12;;;;;;;2.65;1.80;;;;;;;17.56;72.51;97865.66;5041692;27;103951;-69
2022/05/23 00:19:43;;;;;;;1.70;1.60;;;;;;;17.72;72.43;97863.75;5026140;27;104115;-69
2022/05/23 00:22:11;;;;;;;1.60;1.50;;;;;;;18.28;69.76;97861.69;5044056;27;102651;-69
2022/05/23 00:24:41;;;;;;;2.17;1.85;;;;;;;18.48;68.06;97860.22;5045684;27;103845;-69
2022/05/23 00:27:12;;;;;;;2.67;1.88;;;;;;;18.48;68.71;97860.22;5042424;27;103994;-69
2022/05/23 00:29:41;;;;;;;4.05;1.95;;;;;;;18.51;68.41;97854.53;5021788;27;103545;-69
2022/05/23 00:37:52;;;;;;;2.17;1.97;;;;;;;17.03;74.55;97823.66;5026220;27;104121;-69
2022/05/23 00:40:35;;;;;;;1.98;1.73;;;;;;;17.99;70.79;97826.84;5027777;27;103320;-69
2022/05/23 00:43:14;;;;;;;2.10;1.90;;;;;;;18.32;68.81;97817.56;5025697;27;102656;-69
2022/05/23 00:45:47;;;;;;;2.30;1.90;;;;;;;18.12;69.72;97811.03;5024363;27;102711;-69
2022/05/23 00:48:18;;;;;;;2.75;2.28;;;;;;;17.83;71.20;97801.91;5040460;27;103269;-69
2022/05/23 00:50:52;;;;;;;4.07;2.20;;;;;;;17.21;73.83;97809.06;5042833;27;103188;-69
2022/05/23 00:53:27;;;;;;;2.80;2.28;;;;;;;16.51;76.08;97807.25;5041492;27;103380;-68
2022/05/23 00:55:55;;;;;;;3.73;2.43;;;;;;;16.55;75.57;97804.13;5044307;27;104346;-69
2022/05/23 00:58:28;;;;;;;3.42;2.47;;;;;;;16.79;74.41;97804.03;5027654;27;104245;-69
2022/05/23 01:00:58;;;;;;;2.80;1.95;;;;;;;17.60;70.87;97805.56;5040322;27;103281;-68
2022/05/23 01:03:30;;;;;;;1.93;1.50;;;;;;;17.95;69.13;97805.81;5032283;27;103389;-69
2022/05/23 01:05:59;;;;;;;1.85;1.45;;;;;;;18.01;69.47;97804.28;5023337;27;103788;-69
2022/05/23 01:08:27;;;;;;;2.27;2.07;;;;;;;17.67;70.64;97804.69;5040413;27;104179;-69
2022/05/23 01:10:56;;;;;;;4.10;2.28;;;;;;;17.50;71.40;97795.06;5025139;27;105577;-69
2022/05/23 01:13:26;;;;;;;2.45;1.95;;;;;;;17.24;73.20;97799.88;5023153;27;102682;-69
2022/05/23 01:15:57;;;;;;;3.77;2.10;;;;;;;17.00;73.33;97808.81;5022739;27;103268;-69
2022/05/23 01:18:29;;;;;;;4.03;2.20;;;;;;;15.87;77.83;97800.13;5030942;27;104836;-69
2022/05/23 01:21:00;;;;;;;2.78;2.50;;;;;;;16.05;77.03;97782.16;5022952;27;103203;-69
2022/05/23 01:23:38;;;;;;;3.67;2.67;;;;;;;16.02;77.12;97769.16;5022369;27;103928;-69
2022/05/23 01:26:20;;;;;;;2.50;2.30;;;;;;;16.47;75.43;97765.94;5025326;27;102802;-68
2022/05/23 01:28:52;;;;;;;2.97;2.28;;;;;;;16.96;72.27;97763.97;5042861;27;104573;-69
2022/05/23 01:31:38;;;;;;;2.47;1.67;;;;;;;17.47;70.64;97762.53;5025374;27;103174;-69
2022/05/23 01:34:16;;;;;;;1.60;1.50;;;;;;;17.71;69.62;97767.78;5028314;27;102902;-68
2022/05/23 01:37:00;;;;;;;3.30;2.27;;;;;;;17.69;70.01;97767.94;5026490;27;103101;-69
2022/05/23 01:39:33;;;;;;;3.83;2.30;;;;;;;17.25;71.65;97769.53;5024454;27;104089;-68
2022/05/23 01:42:03;;;;;;;3.47;2.45;;;;;;;16.61;74.82;97759.94;5026912;27;103259;-69
2022/05/23 01:44:32;;;;;;;2.63;2.15;;;;;;;16.91;73.69;97755.66;5028974;27;103094;-69
2022/05/23 01:47:26;;;;;;;2.50;2.25;;;;;;;16.97;73.63;97755.81;5034033;27;102661;-69
2022/05/23 01:49:59;;;;;;;3.10;2.58;;;;;;;17.10;72.89;97756.06;5021863;27;104634;-69
2022/05/23 01:52:38;;;;;;;3.42;2.50;;;;;;;16.87;74.27;97754.38;5041742;27;103217;-69
2022/05/23 01:55:13;;;;;;;3.30;2.22;;;;;;;17.16;72.93;97758.06;5025446;27;102710;-69
2022/05/23 01:58:00;;;;;;;1.80;1.70;;;;;;;17.54;70.67;97763.56;5033073;27;102728;-69
2022/05/23 02:03:14;;;;;;;2.30;2.10;;;;;;;17.66;70.10;97762.94;5021760;27;104519;-69
2022/05/23 02:05:42;;;;;;;2.42;2.03;;;;;;;17.56;70.81;97762.38;5020019;27;102749;-69
2022/05/23 02:08:10;;;;;;;3.00;2.40;;;;;;;16.83;74.21;97753.03;5020718;27;103998;-68
2022/05/23 02:10:39;;;;;;;3.42;2.70;;;;;;;15.64;79.93;97760.81;5018599;27;103728;-68
2022/05/23 02:13:10;;;;;;;4.25;2.55;;;;;;;16.38;77.06;97743.81;5042353;27;103212;-68
2022/05/23 02:15:38;;;;;;;3.55;2.50;;;;;;;16.77;75.50;97742.06;5020011;27;102924;-68
2022/05/23 02:18:42;;;;;;;2.58;2.10;;;;;;;16.96;74.49;97729.28;5029040;27;103664;-69
2022/05/23 02:21:10;;;;;;;2.15;1.90;;;;;;;17.23;73.12;97736.84;5021489;27;104315;-68
2022/05/23 02:23:40;;;;;;;2.30;1.92;;;;;;;17.34;72.33;97736.44;5043277;27;103288;-68
2022/05/23 02:26:08;;;;;;;2.35;2.10;;;;;;;17.48;71.12;97738.34;5040831;27;103493;-68
2022/05/23 02:28:49;;;;;;;3.50;2.40;;;;;;;17.33;72.21;97730.28;5028367;27;103961;-68
2022/05/23 02:31:28;;;;;;;3.17;2.78;;;;;;;16.71;75.22;97724.06;5020872;27;104693;-68
2022/05/23 02:34:04;;;;;;;3.20;2.90;;;;;;;16.58;76.28;97723.78;5032374;27;103838;-68
2022/05/23 02:36:53;;;;;;;4.35;3.05;;;;;;;16.69;75.79;97717.25;5022218;27;102717;-68
2022/05/23 02:39:53;;;;;;;3.55;3.10;;;;;;;16.44;77.72;97711.13;5033658;27;104183;-68
2022/05/23 02:42:21;;;;;;;4.30;3.13;;;;;;;16.11;79.02;97704.22;5020034;27;103503;-68
2022/05/23 02:44:53;;;;;;;4.50;3.20;;;;;;;15.96;79.59;97701.41;5022142;27;105042;-68
2022/05/23 02:47:24;;;;;;;5.10;3.10;;;;;;;15.96;79.27;97698.75;5019284;27;102779;-68
2022/05/23 02:49:54;;;;;;;4.00;3.20;;;;;;;15.99;78.98;97689.59;5039151;27;104354;-68
2022/05/23 02:52:37;;;;;;;5.50;3.30;;;;;;;15.78;80.33;97689.25;5022791;27;106009;-68
2022/05/23 02:55:31;;;;;;;3.72;3.33;;;;;;;15.92;79.52;97677.94;5040140;27;104002;-68
2022/05/23 02:58:00;;;;;;;4.57;3.05;;;;;;;16.31;77.71;97676.19;5022188;27;102990;-68
2022/05/23 03:00:34;;;;;;;3.75;2.97;;;;;;;16.68;76.18;97675.56;5030277;27;103976;-68
2022/05/23 03:03:06;;;;;;;4.30;2.80;;;;;;;16.41;77.14;97668.84;5026137;27;103927;-68
2022/05/23 03:05:45;;;;;;;3.05;2.72;;;;;;;16.22;77.77;97655.91;5037766;27;105796;-68
2022/05/23 03:08:15;;;;;;;3.90;2.78;;;;;;;16.47;76.39;97652.16;5038667;27;102906;-68
2022/05/23 03:10:44;;;;;;;3.08;2.40;;;;;;;17.01;74.14;97654.91;5020042;27;103006;-68
2022/05/23 03:13:13;;;;;;;2.93;2.70;;;;;;;17.01;73.80;97649.59;5020519;27;105184;-68
2022/05/23 03:15:43;;;;;;;2.60;2.40;;;;;;;17.38;72.20;97653.16;5031706;27;104344;-68
2022/05/23 03:18:13;;;;;;;2.85;2.10;;;;;;;17.43;72.74;97655.31;5043128;27;102764;-86
2022/05/23 03:20:43;;;;;;;3.03;2.28;;;;;;;17.48;72.30;97642.25;5057538;27;103113;-89
2022/05/23 03:28:48;;;;;;;2.30;2.10;;;;;;;17.87;70.25;97653.59;5026576;27;102775;-75
2022/05/23 03:31:17;;;;;;;2.20;2.00;;;;;;;17.86;70.14;97651.94;5027057;27;102959;-75
2022/05/23 03:33:45;;;;;;;2.50;1.97;;;;;;;17.95;70.17;97653.53;5025681;27;104114;-75
2022/05/23 03:36:14;;;;;;;3.38;2.20;;;;;;;17.96;70.81;97659.72;5027916;27;105650;-75
2022/05/23 03:38:42;;;;;;;3.20;2.50;;;;;;;17.40;72.96;97658.31;5046669;27;102661;-75
2022/05/23 03:41:10;;;;;;;3.03;2.30;;;;;;;17.19;73.82;97647.44;5029156;27;104087;-75
2022/05/23 03:43:39;;;;;;;1.98;1.88;;;;;;;17.71;71.56;97640.38;5045151;27;104217;-75
2022/05/23 03:46:08;;;;;;;1.73;1.60;;;;;;;18.00;69.76;97641.44;5037683;27;104185;-70
2022/05/23 03:48:38;;;;;;;3.30;2.10;;;;;;;17.95;71.02;97634.81;5035874;27;102834;-69
2022/05/23 03:51:08;;;;;;;2.60;2.40;;;;;;;17.61;72.31;97637.16;5051963;27;103023;-69
2022/05/23 03:53:37;;;;;;;2.15;1.80;;;;;;;17.68;72.24;97637.25;5038917;27;104261;-70
2022/05/23 03:56:07;;;;;;;2.17;1.90;;;;;;;17.90;71.03;97653.25;5027916;27;103361;-69
2022/05/23 03:58:37;;;;;;;3.10;2.65;;;;;;;18.02;71.31;97679.53;5048827;27;102686;-69
2022/05/23 04:01:24;;;;;;;2.17;2.00;;;;;;;18.01;70.69;97686.72;5033847;27;104137;-69
2022/05/23 04:03:58;;;;;;;3.22;2.30;;;;;;;18.22;69.84;97692.16;5040932;27;104477;-70
2022/05/23 04:06:32;;;;;;;2.22;2.03;;;;;;;18.30;70.53;97704.63;5033505;27;103203;-69
2022/05/23 04:09:04;;;;;;;3.03;2.50;;;;;;;18.16;70.54;97732.16;5029814;27;103269;-69
2022/05/23 04:11:33;;;;;;;2.83;2.60;;;;;;;17.93;71.16;97810.53;5032890;27;102843;-69
2022/05/23 04:14:03;;;;;;;3.20;2.90;;;;;;;17.18;73.15;97891.31;5028860;27;104348;-70
2022/05/23 04:16:37;;;;;;;4.30;2.70;;;;;;;17.24;72.89;97903.97;5037892;27;105301;-70
2022/05/23 04:19:08;;;;;;;3.80;2.40;;;;;;;17.12;72.10;97881.34;5051268;27;102657;-70
2022/05/23 04:21:43;;;;;;;5.68;2.60;;;;;;;17.08;72.56;97874.66;5044906;27;102994;-70
2022/05/23 04:24:19;;;;;;;4.85;2.47;;;;;;;17.58;70.89;97888.53;5033085;27;105181;-70
2022/05/23 04:26:57;;;;;;;3.70;2.50;;;;;;;17.78;70.06;97907.63;5030209;27;106276;-70
2022/05/23 04:29:29;;;;;;;4.53;2.58;;;;;;;17.50;71.33;97896.53;5028659;27;102833;-70
2022/05/23 04:31:57;;;;;;;4.32;2.08;;;;;;;17.56;72.69;97911.91;5029710;27;104131;-79
2022/05/23 04:37:24;;;;;;;4.23;2.53;;;;;;;17.65;76.06;97928.72;5051145;27;106025;-85
2022/05/23 04:39:52;;;;;;;4.65;2.72;;;;;;;17.13;79.71;97931.03;5037376;27;102490;-86
2022/05/23 04:42:20;;;;;;;4.65;2.80;;;;;;;17.33;80.45;97919.81;5044320;27;102915;-87
2022/05/23 04:44:48;;;;;;;4.95;3.03;;;;;;;17.14;83.26;97928.19;5038403;27;104295;-87
2022/05/23 04:50:12;;;;;;;5.00;2.70;;;;;;;17.54;81.36;97908.59;5043413;27;102761;-86
2022/05/23 04:52:43;;;;;;;6.47;2.60;;;;;;;17.49;82.28;97905.53;5039647;27;103974;-86
2022/05/23 04:55:14;;;;;;;4.72;2.33;;;;;;;17.30;82.35;97889.94;5054319;27;104303;-89
2022/05/23 04:57:44;;;;;;;3.80;2.53;;;;;;;16.83;85.33;97857.06;5051889;27;104121;-87
2022/05/23 05:00:17;;;;;;;3.72;2.53;;;;;;;17.06;86.04;97876.69;5039781;27;102585;-83
2022/05/23 05:02:53;;;;;;;3.03;2.03;;;;;;;17.51;83.50;97842.16;5029796;27;103059;-72
2022/05/23 05:05:30;;;;;;;3.47;2.50;;;;;;;16.92;86.48;97827.53;5026188;27;104858;-71
2022/05/23 05:07:58;;;;;;;2.22;1.98;;;;;;;17.36;84.41;97814.50;5042894;27;103207;-71
2022/05/23 05:10:28;;;;;;;2.37;1.70;;;;;;;17.70;82.83;97807.00;5025367;27;102908;-71
2022/05/23 05:12:58;;;;;;;1.83;1.60;;;;;;;17.94;82.30;97820.19;5025703;27;102773;-72
2022/05/23 05:15:28;;;;;;;2.60;1.80;;;;;;;18.09;81.76;97817.59;5040433;27;104445;-72
2022/05/23 05:17:57;;;;;;;4.00;2.50;;;;;;;17.89;82.97;97832.41;5029982;27;105232;-72
2022/05/23 05:20:30;;;;;;;2.30;1.90;;;;;;;18.05;82.35;97853.69;5039031;27;102760;-72
2022/05/23 05:22:59;;;;;;;2.75;2.33;;;;;;;18.08;82.62;97860.53;5047844;27;103978;-71
2022/05/23 05:25:33;;;;;;;2.88;2.30;;;;;;;17.91;84.47;97851.78;5046511;27;103225;-71
2022/05/23 05:28:05;;;;;;;3.05;2.20;;;;;;;18.11;83.57;97847.63;5028482;27;103477;-71
2022/05/23 05:30:40;;;;;;;2.40;2.13;;;;;;;18.26;83.41;97828.97;5026970;27;102720;-72
2022/05/23 05:33:16;;;;;;;4.37;3.33;;;;;;;17.38;85.97;97791.97;5042125;27;102633;-72
2022/05/23 05:35:49;;;;;;;3.72;3.10;;;;;;;17.39;86.29;97782.13;5027241;27;104213;-71
2022/05/23 05:38:21;;;;;;;5.03;2.88;;;;;;;17.55;85.67;97755.34;5042092;27;103231;-70
2022/05/23 05:41:01;;;;;;;4.40;3.45;;;;;;;17.30;87.20;97751.13;5045495;27;102798;-70
2022/05/23 05:43:35;;;;;;;3.50;3.20;;;;;;;17.34;87.23;97747.13;5049498;27;103128;-71
2022/05/23 05:46:15;;;;;;;4.10;3.17;;;;;;;16.85;89.90;97751.84;5025553;27;105485;-71
2022/05/23 05:48:53;;;;;;;4.80;3.20;;;;;;;17.16;88.11;97749.22;5029987;27;104961;-71
2022/05/23 05:51:25;;;;;;;3.60;3.10;;;;;;;17.15;86.78;97731.56;5027286;27;102973;-71
2022/05/23 05:54:16;;;;;;;5.03;3.53;;;;;;;17.22;87.88;97727.16;5025277;27;103713;-71
2022/05/23 05:56:53;;;;;;;5.18;3.33;;;;;;;17.31;86.78;97710.09;5026783;27;104887;-71
2022/05/23 05:59:22;;;;;;;4.13;3.30;;;;;;;17.47;85.81;97693.13;5025630;27;104281;-70
2022/05/23 06:01:49;;;;;;;3.50;2.85;;;;;;;17.76;85.03;97680.75;5024837;27;102714;-70
2022/05/23 06:04:19;;;;;;;3.83;3.00;;;;;;;17.80;85.26;97665.19;5043984;27;104313;-70
2022/05/23 06:12:33;;;;;;;3.90;3.30;;;;;;;17.75;85.45;97679.09;5025254;27;102611;-71
2022/05/23 06:15:20;;;;;;;4.93;3.50;;;;;;;17.94;84.99;97659.88;5045518;27;104134;-71
2022/05/23 06:17:50;;;;;;;4.18;3.20;;;;;;;18.23;84.69;97652.91;5024014;27;106084;-71
2022/05/23 06:20:19;;;;;;;4.20;3.60;;;;;;;17.78;86.25;97643.16;5027569;27;105140;-71
2022/05/23 06:22:51;;;;;;;5.03;2.97;;;;;;;18.54;83.05;97634.84;5025719;27;103281;-70
2022/05/23 06:25:20;;;;;;;5.17;2.73;;;;;;;18.83;81.50;97629.47;5048816;27;104402;-71
2022/05/23 06:27:52;;;;;;;3.78;3.00;;;;;;;19.08;81.45;97638.81;5025903;27;105151;-70
2022/05/23 06:30:24;;;;;;;4.03;3.50;;;;;;;18.93;81.68;97646.03;5024061;27;104179;-70
2022/05/23 06:33:07;;;;;;;4.70;3.10;;;;;;;18.72;82.58;97647.84;5033738;27;102651;-70
2022/05/23 06:35:44;;;;;;;3.40;3.10;;;;;;;18.60;79.96;97628.78;5028075;27;102770;-71
2022/05/23 06:38:13;;;;;;;3.40;3.03;;;;;;;18.80;81.82;97618.31;5030743;27;103584;-70
2022/05/23 06:40:50;;;;;;;4.30;3.53;;;;;;;18.75;81.28;97594.78;5036506;27;104306;-71
2022/05/23 06:43:39;;;;;;;5.43;3.60;;;;;;;18.37;82.93;97580.72;5044707;27;102858;-70
2022/05/23 06:46:22;;;;;;;5.60;3.67;;;;;;;18.75;82.27;97553.84;5043078;27;102592;-71
2022/05/23 06:49:10;;;;;;;5.43;3.75;;;;;;;18.43;82.22;97547.91;5044605;27;103181;-71
2022/05/23 06:52:09;;;;;;;3.92;3.53;;;;;;;18.42;83.42;97545.38;5019289;27;103263;-70
2022/05/23 06:54:55;;;;;;;4.70;3.47;;;;;;;18.55;82.42;97553.63;5041550;27;102660;-70
2022/05/23 06:57:37;;;;;;;5.95;3.67;;;;;;;18.48;82.35;97561.56;5024260;27;102686;-70
2022/05/23 07:00:09;;;;;;;4.50;3.75;;;;;;;18.55;82.40;97556.28;5041941;27;105533;-70
2022/05/23 07:02:37;;;;;;;4.75;3.55;;;;;;;18.71;81.93;97574.78;5027020;27;103982;-71
2022/05/23 07:14:10;;;;;;;6.13;3.53;;;;;;;19.55;77.96;97581.19;5050894;27;103174;-70
2022/05/23 07:16:39;;;;;;;4.78;3.63;;;;;;;19.91;77.71;97576.50;5022028;27;102764;-70
2022/05/23 07:19:08;;;;;;;4.03;3.60;;;;;;;19.93;75.99;97585.16;5045272;27;102717;-70
2022/05/23 07:21:46;;;;;;;4.07;3.17;;;;;;;20.40;75.98;97578.28;5027274;27;105003;-71
2022/05/23 07:24:17;;;;;;;4.75;3.38;;;;;;;20.64;74.72;97578.56;5030566;27;103219;-70
2022/05/23 07:26:54;;;;;;;4.55;2.95;;;;;;;20.97;73.45;97584.03;5043975;27;102572;-70
2022/05/23 07:29:22;;;;;;;6.07;3.63;;;;;;;20.60;73.97;97581.88;5029349;27;102737;-71
2022/05/23 07:31:53;;;;;;;3.60;3.15;;;;;;;20.85;73.42;97585.66;5030380;27;103574;-70
2022/05/23 07:34:22;;;;;;;4.03;3.20;;;;;;;20.86;72.29;97592.69;5027121;27;105340;-70
2022/05/23 07:36:50;;;;;;;4.35;3.47;;;;;;;20.74;73.94;97588.94;5027547;27;102726;-70
2022/05/23 07:39:18;;;;;;;4.40;3.17;;;;;;;20.58;72.95;97578.53;5026074;27;104044;-70
2022/05/23 07:41:56;;;;;;;3.63;2.67;;;;;;;21.01;71.82;97585.28;5030543;27;105832;-70
2022/05/23 07:44:28;;;;;;;4.50;3.22;;;;;;;20.95;71.42;97594.16;5028077;27;104796;-70
2022/05/23 07:47:06;;;;;;;3.67;2.80;;;;;;;21.16;69.69;97599.41;5030665;27;102978;-71
2022/05/23 07:49:35;;;;;;;5.05;3.30;;;;;;;21.26;69.80;97594.47;5050285;27;104120;-70
2022/05/23 07:52:14;;;;;;;3.30;2.90;;;;;;;21.40;68.65;97584.56;5030108;27;105251;-70
2022/05/23 08:00:45;;;;;;;3.13;2.72;;;;;;;21.68;66.96;97569.06;5017367;27;102869;-71
2022/05/23 08:03:24;;;;;;;4.50;3.25;;;;;;;21.41;67.72;97575.47;5032161;27;104308;-70
2022/05/23 08:06:16;;;;;;;3.70;2.70;;;;;;;22.13;67.24;97574.59;5046527;27;102885;-70
2022/05/23 08:08:44;;;;;;;2.60;2.30;;;;;;;22.69;66.21;97564.09;5028820;27;102690;-71
2022/05/23 08:11:13;;;;;;;2.60;2.40;;;;;;;23.07;64.50;97567.63;5028971;27;102826;-71
2022/05/23 08:13:58;;;;;;;3.17;2.87;;;;;;;22.65;63.03;97562.88;5028003;27;104399;-71
2022/05/23 08:16:30;;;;;;;3.00;2.70;;;;;;;22.32;63.38;97563.78;5021621;27;103196;-71
2022/05/23 08:19:00;;;;;;;3.40;2.70;;;;;;;22.28;63.33;97561.75;5016066;27;102758;-71
2022/05/23 08:21:29;;;;;;;4.43;2.97;;;;;;;21.99;64.76;97557.69;5022316;27;104181;-71
2022/05/23 08:23:59;;;;;;;3.95;3.10;;;;;;;21.50;66.20;97539.28;5023365;27;104821;-71
2022/05/23 08:26:32;;;;;;;2.72;2.40;;;;;;;21.77;66.22;97553.53;5020275;27;104696;-70
2022/05/23 08:29:02;;;;;;;5.68;3.03;;;;;;;21.77;65.74;97559.75;5021523;27;102727;-70
2022/05/23 08:31:40;;;;;;;4.22;2.63;;;;;;;22.42;64.89;97547.22;5037549;27;102685;-71
2022/05/23 08:34:15;;;;;;;2.70;2.50;;;;;;;21.92;67.75;97533.47;5012019;27;106193;-70
2022/05/23 08:36:43;;;;;;;3.90;3.25;;;;;;;21.91;65.10;97549.84;5011910;27;104745;-71
2022/05/23 08:39:12;;;;;;;3.15;2.85;;;;;;;22.26;65.27;97543.13;5038327;27;103065;-71
2022/05/23 08:41:58;;;;;;;5.33;2.80;;;;;;;22.20;66.42;97533.22;5022363;27;102956;-71
2022/05/23 08:44:48;;;;;;;4.15;3.30;;;;;;;22.06;65.88;97520.84;5026167;27;104086;-71
2022/05/23 08:47:33;;;;;;;4.18;3.00;;;;;;;22.12;65.92;97520.00;5021114;27;103223;-71
2022/05/23 08:50:13;;;;;;;3.58;3.08;;;;;;;22.21;65.77;97518.72;5022459;27;102594;-71
2022/05/23 08:52:50;;;;;;;6.57;3.30;;;;;;;22.21;65.30;97524.09;5043181;27;104002;-70
2022/05/23 08:55:52;;;;;;;3.78;3.20;;;;;;;22.10;67.14;97513.16;5020914;27;103240;-71
2022/05/23 08:58:30;;;;;;;5.35;3.20;;;;;;;21.86;67.03;97509.28;5008258;27;105257;-71
2022/05/23 09:01:10;;;;;;;5.40;3.20;;;;;;;21.66;67.39;97498.56;5015971;27;103046;-70
2022/05/23 09:03:42;;;;;;;5.78;3.03;;;;;;;21.53;67.83;97495.09;5039921;27;103912;-71
2022/05/23 09:06:21;;;;;;;3.97;3.30;;;;;;;21.36;69.79;97503.53;5020554;27;105635;-71
2022/05/23 09:08:51;;;;;;;4.75;3.30;;;;;;;21.71;69.17;97497.94;5037218;27;103198;-70
2022/05/23 09:11:32;;;;;;;4.30;2.83;;;;;;;22.22;67.21;97501.56;5042314;27;102681;-70
2022/05/23 09:14:01;;;;;;;4.78;3.53;;;;;;;21.96;68.29;97504.31;5043478;27;103915;-70
2022/05/23 09:16:35;;;;;;;3.90;3.50;;;;;;;21.91;68.69;97509.50;5030160;27;104200;-71
2022/05/23 09:19:13;;;;;;;4.18;3.10;;;;;;;22.38;68.35;97503.75;5043621;27;103643;-71
2022/05/23 09:24:38;;;;;;;3.85;3.00;;;;;;;22.59;67.54;97515.25;5046153;27;102584;-71
2022/05/23 09:27:14;;;;;;;3.50;2.63;;;;;;;22.96;66.43;97514.47;5024406;27;104201;-72
2022/05/23 09:29:42;;;;;;;4.00;3.08;;;;;;;22.97;65.41;97513.41;5043355;27;103164;-71
2022/05/23 09:32:17;;;;;;;4.80;3.50;;;;;;;22.54;67.58;97503.25;5045795;27;102576;-70
2022/05/23 09:34:47;;;;;;;3.03;2.70;;;;;;;22.67;65.75;97501.59;5041707;27;104261;-70
2022/05/23 09:37:21;;;;;;;5.60;3.15;;;;;;;22.85;66.36;97504.38;5043265;27;104384;-70
2022/05/23 09:39:55;;;;;;;4.78;3.63;;;;;;;22.39;67.19;97499.22;5043214;27;103292;-71
2022/05/23 09:48:23;;;;;;;3.30;3.00;;;;;;;24.00;63.36;97507.34;5043020;27;104159;-71
2022/05/23 09:50:56;;;;;;;3.28;2.85;;;;;;;23.98;62.52;97505.91;5045916;27;103281;-70
2022/05/23 09:53:27;;;;;;;3.33;2.90;;;;;;;24.15;62.83;97504.31;5054819;27;102707;-71
2022/05/23 09:56:31;;;;;;;4.88;2.65;;;;;;;24.36;61.65;97501.16;5044100;27;102972;-71
2022/05/23 09:59:02;;;;;;;5.03;3.22;;;;;;;23.93;65.98;97503.06;5044216;27;103246;-71
2022/05/23 10:01:40;;;;;;;3.85;2.92;;;;;;;24.59;61.05;97505.88;5048845;27;103500;-71
2022/05/23 10:04:16;;;;;;;3.67;2.97;;;;;;;24.55;62.75;97510.88;5045976;27;103089;-70
2022/05/23 10:06:48;;;;;;;3.88;2.95;;;;;;;25.01;62.76;97517.56;5043349;27;103843;-70
2022/05/23 10:09:27;;;;;;;4.10;2.97;;;;;;;25.11;62.41;97526.75;5023546;27;104200;-71
2022/05/23 10:12:34;;;;;;;5.40;2.63;;;;;;;25.07;61.08;97525.53;5041196;27;103298;-71
2022/05/23 10:15:14;;;;;;;3.63;2.70;;;;;;;25.28;59.83;97525.03;5049644;27;102730;-71
2022/05/23 10:17:43;;;;;;;3.15;2.85;;;;;;;25.47;59.53;97536.59;5048661;27;102655;-70
2022/05/23 10:20:24;;;;;;;5.68;4.63;;;;;;;25.46;60.64;97536.81;5043354;27;104159;-70
2022/05/23 10:22:58;;;;;;;3.85;3.20;;;;;;;24.77;61.21;97528.25;5024388;27;104284;-72
2022/05/23 10:25:28;;;;;;;3.05;2.67;;;;;;;25.32;60.52;97519.97;5024544;27;102609;-71
2022/05/23 10:28:00;;;;;;;2.95;2.75;;;;;;;25.59;61.82;97528.50;5041577;27;102854;-72
2022/05/23 10:30:33;;;;;;;3.95;2.72;;;;;;;25.15;60.82;97549.53;5042163;27;104080;-71
2022/05/23 10:33:08;;;;;;;4.13;2.97;;;;;;;25.03;59.64;97550.56;5040109;27;106361;-72
2022/05/23 10:35:41;;;;;;;3.50;3.20;;;;;;;24.79;61.44;97552.31;5024960;27;102917;-72
2022/05/23 10:44:06;;;;;;;3.45;2.92;;;;;;;25.37;59.85;97574.19;5043148;27;103097;-69
2022/05/23 10:46:36;;;;;;;3.33;2.20;;;;;;;25.55;59.28;97574.13;5043744;27;103202;-85
2022/05/23 10:49:15;;;;;;;2.90;2.50;;;;;;;25.57;59.33;97572.00;5056932;27;103053;-78
2022/05/23 10:51:57;;;;;;;5.20;2.83;;;;;;;24.97;61.27;97576.63;5053667;27;103856;-80
2022/05/23 10:54:47;;;;;;;3.00;2.60;;;;;;;25.33;59.50;97578.38;5034673;27;104153;-79
2022/05/23 10:57:27;;;;;;;3.17;2.30;;;;;;;25.56;59.80;97562.25;5031739;27;102748;-80
2022/05/23 11:00:03;;;;;;;3.03;2.67;;;;;;;25.40;60.70;97570.19;5038689;27;103568;-80
2022/05/23 11:02:40;;;;;;;3.45;2.70;;;;;;;25.58;61.55;97562.84;5043309;27;104176;-80
2022/05/23 11:05:17;;;;;;;2.93;2.30;;;;;;;25.19;62.11;97576.94;5057012;27;103201;-79
2022/05/23 11:08:07;;;;;;;2.73;2.40;;;;;;;25.23;61.93;97573.56;5051145;27;102930;-80
2022/05/23 11:10:46;;;;;;;4.13;2.80;;;;;;;24.51;63.15;97582.56;5057477;27;103874;-79
2022/05/23 11:13:29;;;;;;;2.97;2.70;;;;;;;24.43;63.75;97601.75;5030193;27;104458;-79
2022/05/23 11:16:07;;;;;;;3.43;2.70;;;;;;;24.01;65.05;97613.38;5033237;27;103187;-79
2022/05/23 11:18:49;;;;;;;5.78;3.22;;;;;;;23.86;66.95;97637.16;5020876;27;102862;-78
2022/05/23 11:21:24;;;;;;;7.07;3.38;;;;;;;23.97;68.59;97645.34;5043834;27;104166;-72
2022/05/23 11:24:00;;;;;;;6.28;3.60;;;;;;;23.96;69.95;97642.88;5032964;27;103978;-76
2022/05/23 11:26:31;;;;;;;4.32;3.13;;;;;;;24.23;70.71;97641.63;5016507;27;103508;-75
2022/05/23 11:35:00;;;;;;;3.47;3.13;;;;;;;23.61;75.33;97678.41;5034014;27;104412;-76
2022/05/23 11:37:45;;;;;;;5.05;3.65;;;;;;;23.61;75.33;97677.56;5036299;27;103639;-72
2022/05/23 11:40:49;;;;;;;5.13;3.80;;;;;;;23.42;75.67;97668.56;5029746;27;102671;-76
2022/05/23 11:43:23;;;;;;;6.15;3.72;;;;;;;23.24;76.23;97679.22;5030844;27;102728;-75
2022/05/23 11:46:06;;;;;;;6.22;4.30;;;;;;;22.54;77.65;97670.13;5020279;27;104298;-73
2022/05/23 11:48:48;;;;;;;4.80;3.67;;;;;;;22.03;79.77;97674.56;5020543;27;104006;-71
2022/05/23 11:51:26;;;;;;;5.40;3.83;;;;;;;22.33;79.35;97667.69;5015858;27;102750;-71
2022/05/23 11:54:06;;;;;;;6.20;4.10;;;;;;;22.38;80.30;97675.94;5041496;27;104016;-71
2022/05/23 11:56:46;;;;;;;4.57;3.65;;;;;;;22.43;79.90;97668.06;5034799;27;103787;-75
2022/05/23 11:59:52;;;;;;;4.80;4.30;;;;;;;22.28;80.31;97654.03;5036408;27;103170;-74
2022/05/23 12:02:27;;;;;;;4.20;3.28;;;;;;;22.37;79.55;97636.63;5038222;27;102708;-74
2022/05/23 12:05:14;;;;;;;4.03;3.25;;;;;;;22.38;80.14;97606.00;5040393;27;104051;-73
2022/05/23 12:08:06;;;;;;;5.07;3.37;;;;;;;22.14;80.10;97582.47;5034031;27;103289;-72
2022/05/23 12:10:43;;;;;;;5.90;3.63;;;;;;;22.19;79.48;97565.69;5026477;27;103212;-71
2022/05/23 12:13:40;;;;;;;5.78;3.38;;;;;;;21.13;82.21;97535.38;5039806;27;102835;-72
2022/05/23 12:16:36;;;;;;;8.43;4.32;;;;;;;20.33;91.55;97494.25;5036755;27;103400;-74
2022/05/23 12:19:36;;;;;;;7.70;4.15;;;;;;;20.09;93.30;97445.47;5037986;27;103806;-74
2022/05/23 12:22:29;;;;;;;8.45;4.50;;;;;;;19.24;100.00;97363.81;5039291;27;104599;-73
2022/05/23 12:25:01;;;;;;;7.50;4.13;;;;;;;18.91;100.00;97324.31;5026592;27;102718;-75
2022/05/23 12:27:34;;;;;;;12.77;4.80;;;;;;;18.56;100.00;97226.31;5025772;27;104344;-74
2022/05/23 12:30:35;;;;;;;6.37;4.00;;;;;;;19.02;100.00;97157.84;5022484;27;103882;-73
2022/05/23 12:33:14;;;;;;;6.47;4.27;;;;;;;19.16;100.00;97187.31;5024364;27;103308;-80
2022/05/23 12:35:50;;;;;;;5.68;3.58;;;;;;;19.60;96.08;97160.88;5013978;27;102731;-75
2022/05/23 12:38:30;;;;;;;5.82;3.47;;;;;;;19.90;92.56;97167.50;5042978;27;104333;-76
2022/05/23 12:41:11;;;;;;;5.00;3.70;;;;;;;19.80;94.07;97193.88;5041673;27;103228;-75
2022/05/23 12:44:04;;;;;;;4.47;3.30;;;;;;;20.15;91.11;97219.47;5052330;27;103184;-77
2022/05/23 12:46:44;;;;;;;5.55;3.35;;;;;;;19.91;92.25;97244.19;5049658;27;103851;-80
2022/05/23 12:49:31;;;;;;;5.18;3.10;;;;;;;20.75;89.70;97280.13;5046210;27;102818;-78
2022/05/23 12:52:20;;;;;;;4.00;2.60;;;;;;;20.93;89.15;97298.25;5035484;27;103644;-83
2022/05/23 12:55:06;;;;;;;5.72;2.95;;;;;;;20.76;89.12;97323.88;5044360;27;103233;-72
2022/05/23 12:58:02;;;;;;;4.03;2.90;;;;;;;21.31;87.90;97306.44;5046283;27;102747;-78
2022/05/23 13:00:36;;;;;;;5.37;3.17;;;;;;;21.38;87.27;97342.19;5020759;27;102926;-83
2022/05/23 13:03:11;;;;;;;2.90;2.17;;;;;;;22.03;85.30;97316.94;5051521;27;103260;-88
2022/05/23 13:05:46;;;;;;;4.13;2.63;;;;;;;22.20;83.05;97312.69;5058310;27;103224;-81